createdAt,value
2022-12-14T00:01:41.298Z,16.73
2022-12-14T00:04:10.308Z,17.27
2022-12-14T00:06:38.045Z,15.32
2022-12-14T00:09:06.281Z,15.43
2022-12-14T00:11:34.352Z,16.60
2022-12-14T00:14:03.991Z,15.77
2022-12-14T00:16:38.488Z,15.20
2022-12-14T00:19:06.379Z,15.70
2022-12-14T00:21:35.509Z,15.18
2022-12-14T00:24:03.816Z,14.98
2022-12-14T00:26:32.627Z,14.50
2022-12-14T00:29:01.978Z,14.73
2022-12-14T00:31:31.332Z,14.38
2022-12-14T00:33:59.511Z,14.85
2022-12-14T00:36:27.213Z,15.25
2022-12-14T00:38:58.436Z,14.30
2022-12-14T00:41:26.130Z,13.85
2022-12-14T00:43:53.748Z,15.10
2022-12-14T00:46:23.400Z,13.13
2022-12-14T00:48:51.096Z,15.15
2022-12-14T00:51:18.866Z,13.93
2022-12-14T00:53:46.496Z,14.10
2022-12-14T00:56:15.524Z,14.10
2022-12-14T00:58:43.105Z,14.05
2022-12-14T01:01:13.653Z,14.45
2022-12-14T01:03:42.662Z,13.48
2022-12-14T01:06:15.859Z,13.90
2022-12-14T01:08:43.728Z,14.27
2022-12-14T01:11:12.336Z,12.80
2022-12-14T01:13:42.858Z,12.70
2022-12-14T01:16:12.891Z,14.32
2022-12-14T01:18:42.828Z,13.20
2022-12-14T01:21:15.154Z,14.10
2022-12-14T01:23:44.021Z,14.10
2022-12-14T01:26:12.685Z,14.18
2022-12-14T01:28:52.571Z,13.55
2022-12-14T01:31:22.634Z,13.40
2022-12-14T01:33:50.446Z,12.43
2022-12-14T01:36:21.112Z,12.93
2022-12-14T01:38:53.502Z,12.43
2022-12-14T01:41:25.400Z,13.95
2022-12-14T01:43:56.524Z,12.52
2022-12-14T01:46:29.286Z,11.38
2022-12-14T01:49:03.138Z,12.10
2022-12-14T01:51:32.377Z,11.57
2022-12-14T01:54:03.856Z,11.73
2022-12-14T01:56:33.789Z,11.38
2022-12-14T01:59:07.292Z,11.55
2022-12-14T02:01:35.351Z,12.20
2022-12-14T02:04:04.860Z,12.10
2022-12-14T02:06:37.165Z,12.50
2022-12-14T02:09:07.038Z,10.68
2022-12-14T02:11:43.929Z,10.77
2022-12-14T02:14:12.852Z,10.70
2022-12-14T02:16:41.513Z,11.05
2022-12-14T02:19:09.225Z,11.60
2022-12-14T02:21:57.190Z,11.38
2022-12-14T02:24:51.445Z,10.30
2022-12-14T02:27:51.786Z,11.45
2022-12-14T02:30:22.614Z,11.15
2022-12-14T02:33:06.210Z,10.77
2022-12-14T02:35:43.601Z,10.13
2022-12-14T02:38:25.752Z,10.63
2022-12-14T02:41:01.909Z,11.07
2022-12-14T02:43:33.672Z,11.13
2022-12-14T02:46:13.801Z,10.10
2022-12-14T02:48:46.671Z,11.48
2022-12-14T02:51:21.532Z,11.40
2022-12-14T02:53:56.560Z,10.73
2022-12-14T02:56:30.131Z,12.48
2022-12-14T02:59:00.080Z,12.32
2022-12-14T03:01:30.430Z,12.30
2022-12-14T03:03:58.402Z,11.38
2022-12-14T03:06:28.530Z,11.77
2022-12-14T03:09:00.645Z,12.70
2022-12-14T03:11:34.202Z,11.88
2022-12-14T03:14:07.485Z,11.10
2022-12-14T03:16:40.969Z,12.00
2022-12-14T03:19:15.865Z,12.27
2022-12-14T03:21:48.369Z,11.90
2022-12-14T03:24:25.045Z,12.60
2022-12-14T03:26:57.554Z,12.05
2022-12-14T03:29:29.098Z,13.60
2022-12-14T03:32:03.134Z,11.63
2022-12-14T03:34:35.168Z,12.15
2022-12-14T03:37:10.111Z,13.00
2022-12-14T03:39:39.850Z,12.50
2022-12-14T03:42:15.988Z,11.95
2022-12-14T03:44:50.258Z,11.50
2022-12-14T03:47:36.482Z,11.73
2022-12-14T03:50:11.811Z,12.38
2022-12-14T03:52:43.916Z,11.40
2022-12-14T03:55:23.959Z,12.40
2022-12-14T03:58:08.016Z,11.50
2022-12-14T04:00:41.446Z,10.93
2022-12-14T04:03:19.559Z,12.35
2022-12-14T04:05:53.296Z,11.75
2022-12-14T04:08:25.467Z,12.23
2022-12-14T04:11:16.329Z,12.95
2022-12-14T04:14:09.145Z,12.98
2022-12-14T04:16:58.457Z,11.30
2022-12-14T04:19:32.670Z,11.25
2022-12-14T04:22:05.365Z,11.70
2022-12-14T04:24:55.506Z,12.50
2022-12-14T04:27:32.065Z,11.30
2022-12-14T04:30:00.853Z,10.70
2022-12-14T04:32:34.828Z,11.13
2022-12-14T04:35:10.699Z,10.93
2022-12-14T04:37:42.376Z,11.13
2022-12-14T04:40:21.708Z,10.55
2022-12-14T04:42:55.662Z,11.02
2022-12-14T04:45:29.078Z,10.05
2022-12-14T04:48:03.890Z,11.38
2022-12-14T04:50:38.566Z,10.85
2022-12-14T04:53:14.453Z,11.40
2022-12-14T04:55:49.647Z,11.60
2022-12-14T04:58:21.904Z,9.60
2022-12-14T05:01:04.360Z,10.90
2022-12-14T05:03:35.563Z,10.82
2022-12-14T05:06:12.095Z,11.73
2022-12-14T05:09:05.088Z,11.23
2022-12-14T05:11:54.735Z,12.40
2022-12-14T05:14:29.512Z,9.95
2022-12-14T05:16:59.662Z,10.93
2022-12-14T05:19:29.113Z,10.73
2022-12-14T05:22:00.575Z,9.98
2022-12-14T05:24:28.342Z,11.40
2022-12-14T05:26:56.031Z,10.55
2022-12-14T05:29:23.666Z,10.13
2022-12-14T05:31:52.081Z,10.85
2022-12-14T05:34:19.718Z,9.65
2022-12-14T05:36:47.504Z,11.95
2022-12-14T05:39:17.620Z,11.05
2022-12-14T05:41:46.727Z,10.90
2022-12-14T05:44:16.971Z,10.77
2022-12-14T05:46:44.540Z,10.40
2022-12-14T05:49:12.161Z,12.82
2022-12-14T05:51:40.094Z,11.23
2022-12-14T05:54:07.748Z,11.23
2022-12-14T05:56:36.719Z,12.02
2022-12-14T05:59:04.410Z,12.63
2022-12-14T06:01:32.057Z,11.25
2022-12-14T06:04:00.220Z,11.45
2022-12-14T06:06:27.844Z,12.43
2022-12-14T06:08:55.592Z,11.30
2022-12-14T06:11:24.384Z,12.73
2022-12-14T06:13:53.478Z,13.07
2022-12-14T06:16:23.429Z,12.23
2022-12-14T06:18:52.879Z,12.90
2022-12-14T06:21:22.650Z,12.10
2022-12-14T06:23:50.496Z,13.60
2022-12-14T06:26:18.641Z,13.05
2022-12-14T06:28:46.502Z,13.00
2022-12-14T06:31:19.887Z,12.82
2022-12-14T06:33:47.967Z,12.65
2022-12-14T06:36:21.148Z,13.43
2022-12-14T06:38:48.945Z,12.77
2022-12-14T06:41:18.087Z,13.68
2022-12-14T06:43:49.186Z,13.55
2022-12-14T06:46:21.121Z,14.02
2022-12-14T06:48:50.747Z,14.05
2022-12-14T06:51:18.514Z,13.77
2022-12-14T06:53:46.296Z,14.23
2022-12-14T06:56:17.647Z,14.23
2022-12-14T06:58:45.879Z,14.32
2022-12-14T07:01:18.192Z,14.88
2022-12-14T07:03:50.598Z,14.32
2022-12-14T07:06:18.709Z,14.88
2022-12-14T07:08:47.168Z,13.63
2022-12-14T07:11:18.120Z,15.50
2022-12-14T07:13:46.253Z,15.82
2022-12-14T07:16:19.430Z,14.85
2022-12-14T07:18:47.418Z,14.55
2022-12-14T07:21:20.667Z,13.45
2022-12-14T07:23:49.835Z,14.70
2022-12-14T07:26:20.133Z,15.63
2022-12-14T07:28:48.652Z,15.10
2022-12-14T07:31:19.447Z,14.90
2022-12-14T07:33:47.448Z,13.05
2022-12-14T07:36:23.966Z,14.77
2022-12-14T07:47:54.415Z,12.82
2022-12-14T07:51:44.649Z,13.05
2022-12-14T07:59:26.871Z,13.50
2022-12-14T08:02:15.071Z,14.13
2022-12-14T08:08:41.236Z,14.00
2022-12-14T08:10:53.540Z,13.07
2022-12-14T08:13:32.653Z,13.60
2022-12-14T08:16:06.844Z,13.30
2022-12-14T08:18:36.228Z,14.05
2022-12-14T08:21:14.615Z,14.48
2022-12-14T08:23:44.977Z,13.80
2022-12-14T08:26:12.758Z,12.55
2022-12-14T08:28:47.669Z,14.20
2022-12-14T08:31:18.327Z,13.88
2022-12-14T08:33:49.661Z,13.80
2022-12-14T08:36:19.575Z,14.05
2022-12-14T08:38:47.602Z,14.13
2022-12-14T08:41:17.001Z,15.57
2022-12-14T08:43:56.900Z,14.38
2022-12-14T08:46:26.000Z,14.43
2022-12-14T08:49:07.743Z,14.75
2022-12-14T08:51:38.428Z,14.15
2022-12-14T08:54:06.325Z,15.23
2022-12-14T08:56:34.283Z,14.27
2022-12-14T09:01:54.627Z,15.93
2022-12-14T09:04:26.572Z,14.40
2022-12-14T09:06:54.323Z,16.55
2022-12-14T09:09:24.309Z,14.63
2022-12-14T09:11:53.296Z,14.30
2022-12-14T09:14:21.557Z,15.13
2022-12-14T09:16:57.156Z,14.10
2022-12-14T09:19:39.975Z,14.10
2022-12-14T09:22:07.736Z,15.25
2022-12-14T09:24:36.148Z,15.02
2022-12-14T09:27:04.724Z,15.18
2022-12-14T09:29:38.149Z,15.85
2022-12-14T09:32:08.589Z,14.32
2022-12-14T09:34:39.243Z,13.38
2022-12-14T09:37:08.915Z,13.43
2022-12-14T09:39:40.581Z,13.43
2022-12-14T09:42:23.343Z,13.43
2022-12-14T09:45:07.448Z,12.55
2022-12-14T09:47:48.926Z,13.50
2022-12-14T09:50:22.040Z,14.13
2022-12-14T09:52:52.313Z,13.05
2022-12-14T09:55:26.229Z,13.60
2022-12-14T09:58:00.303Z,14.07
2022-12-14T10:00:34.665Z,13.90
2022-12-14T10:03:33.922Z,13.68
2022-12-14T10:06:36.618Z,14.88
2022-12-14T10:09:13.235Z,13.18
2022-12-14T10:11:48.216Z,13.18
2022-12-14T10:14:23.336Z,12.75
2022-12-14T10:17:01.001Z,14.18
2022-12-14T10:19:39.639Z,12.48
2022-12-14T10:22:13.094Z,12.68
2022-12-14T10:24:45.811Z,13.75
2022-12-14T10:27:21.835Z,12.77
2022-12-14T10:29:56.432Z,13.65
2022-12-14T10:32:30.216Z,12.27
2022-12-14T10:34:59.540Z,12.45
2022-12-14T10:37:34.536Z,13.02
2022-12-14T10:40:22.151Z,11.63
2022-12-14T10:43:26.893Z,13.18
2022-12-14T10:46:02.348Z,12.77
2022-12-14T10:48:45.224Z,12.13
2022-12-14T10:51:19.105Z,12.43
2022-12-14T10:53:52.217Z,13.38
2022-12-14T10:56:25.261Z,13.23
2022-12-14T10:59:20.729Z,14.48
2022-12-14T11:02:03.297Z,14.70
2022-12-14T11:04:37.385Z,13.93
2022-12-14T11:07:07.906Z,13.95
2022-12-14T11:09:38.825Z,14.25
2022-12-14T11:12:10.775Z,15.10
2022-12-14T11:14:41.318Z,12.98
2022-12-14T11:17:34.163Z,14.07
2022-12-14T11:20:14.965Z,12.77
2022-12-14T11:22:48.120Z,14.25
2022-12-14T11:25:35.146Z,12.55
2022-12-14T11:28:06.945Z,12.23
2022-12-14T11:30:35.056Z,12.75
2022-12-14T11:33:02.884Z,12.02
2022-12-14T11:35:31.009Z,12.73
2022-12-14T11:38:00.352Z,12.98
2022-12-14T11:40:58.245Z,11.40
2022-12-14T11:43:45.723Z,11.18
2022-12-14T11:46:26.785Z,11.05
2022-12-14T11:49:24.948Z,11.07
2022-12-14T11:52:18.765Z,11.45
2022-12-14T11:55:12.922Z,12.15
2022-12-14T11:58:00.478Z,11.60
2022-12-14T12:00:55.281Z,12.13
2022-12-14T12:03:27.217Z,12.55
2022-12-14T12:06:01.196Z,13.05
2022-12-14T12:08:52.711Z,12.57
2022-12-14T12:11:22.908Z,12.90
2022-12-14T12:13:54.631Z,13.35
2022-12-14T12:16:53.192Z,12.63
2022-12-14T12:19:30.628Z,11.65
2022-12-14T12:22:04.799Z,11.88
2022-12-14T12:24:55.166Z,12.05
2022-12-14T12:27:27.002Z,13.52
2022-12-14T12:30:03.567Z,12.68
2022-12-14T12:33:01.192Z,12.95
2022-12-14T12:35:39.023Z,13.40
2022-12-14T12:41:13.271Z,12.55
2022-12-14T12:43:59.864Z,11.88
2022-12-14T12:47:23.972Z,12.25
2022-12-14T12:50:00.142Z,12.80
2022-12-14T12:52:40.419Z,12.13
2022-12-14T12:55:23.397Z,12.23
2022-12-14T12:58:30.299Z,13.95
2022-12-14T13:01:17.560Z,12.30
2022-12-14T13:04:03.887Z,12.18
2022-12-14T13:06:54.977Z,12.23
2022-12-14T13:10:25.248Z,12.68
2022-12-14T13:14:30.059Z,11.10
2022-12-14T13:17:56.506Z,12.27
2022-12-14T13:20:54.214Z,11.55
2022-12-14T13:23:46.590Z,12.73
2022-12-14T13:26:57.755Z,12.20
2022-12-14T13:29:54.651Z,12.43
2022-12-14T13:32:58.582Z,13.98
2022-12-14T13:35:55.919Z,13.40
2022-12-14T13:39:17.087Z,13.07
2022-12-14T13:42:14.962Z,13.13
2022-12-14T13:46:10.351Z,13.20
2022-12-14T13:49:00.875Z,12.63
2022-12-14T13:51:51.493Z,12.85
2022-12-14T13:54:45.391Z,13.38
2022-12-14T13:57:23.351Z,12.55
2022-12-14T13:59:58.664Z,13.43
2022-12-14T14:02:41.074Z,13.25
2022-12-14T14:05:49.765Z,12.82
2022-12-14T14:08:37.805Z,13.48
2022-12-14T14:12:01.028Z,11.85
2022-12-14T14:14:58.403Z,13.00
2022-12-14T14:17:50.066Z,13.73
2022-12-14T14:21:01.107Z,13.02
2022-12-14T14:24:29.336Z,13.70
2022-12-14T14:27:33.556Z,12.93
2022-12-14T14:30:07.070Z,13.25
2022-12-14T14:33:35.858Z,14.40
2022-12-14T14:35:44.540Z,14.68
2022-12-14T14:38:28.609Z,14.27
2022-12-14T14:41:16.592Z,14.73
2022-12-14T14:43:55.270Z,16.42
2022-12-14T14:46:35.091Z,14.27
2022-12-14T14:49:07.806Z,15.77
2022-12-14T14:51:36.925Z,13.90
2022-12-14T14:55:06.929Z,16.10
2022-12-14T14:57:35.793Z,16.23
2022-12-14T15:00:07.011Z,15.40
2022-12-14T15:02:42.067Z,14.48
2022-12-14T15:08:35.676Z,13.27
2022-12-14T15:11:12.926Z,12.80
2022-12-14T15:13:47.113Z,13.05
2022-12-14T15:16:34.081Z,12.68
2022-12-14T15:22:52.776Z,13.05
2022-12-14T15:25:53.371Z,12.82
2022-12-14T15:28:25.272Z,13.07
2022-12-14T15:30:54.980Z,12.93
2022-12-14T15:33:35.468Z,12.43
2022-12-14T15:36:09.588Z,13.82
2022-12-14T15:38:38.106Z,14.82
2022-12-14T15:41:07.956Z,12.52
2022-12-14T15:43:35.778Z,13.93
2022-12-14T15:46:15.544Z,15.40
2022-12-14T15:48:44.758Z,15.20
2022-12-14T15:51:16.144Z,15.50
2022-12-14T15:53:49.857Z,15.75
2022-12-14T15:56:33.010Z,16.02
2022-12-14T15:59:21.057Z,17.85
2022-12-14T16:02:06.743Z,17.83
2022-12-14T16:04:45.149Z,16.35
2022-12-14T16:08:49.676Z,16.02
2022-12-14T16:11:23.260Z,16.27
2022-12-14T16:14:17.534Z,14.75
2022-12-14T16:16:52.814Z,17.27
2022-12-14T16:19:57.448Z,16.15
2022-12-14T16:22:30.790Z,16.05
2022-12-14T16:25:27.827Z,15.48
2022-12-14T16:28:25.335Z,14.77
2022-12-14T16:31:05.556Z,14.60
2022-12-14T16:33:37.712Z,15.68
2022-12-14T16:36:11.373Z,13.73
2022-12-14T16:38:54.509Z,15.05
2022-12-14T16:41:35.465Z,16.02
2022-12-14T16:44:05.036Z,16.30
2022-12-14T16:46:34.630Z,15.85
2022-12-14T16:49:32.440Z,14.95
2022-12-14T16:52:30.876Z,15.15
2022-12-14T16:55:57.023Z,15.70
2022-12-14T16:58:39.576Z,14.20
2022-12-14T17:01:12.379Z,14.93
2022-12-14T17:03:55.945Z,14.35
2022-12-14T17:06:58.474Z,14.43
2022-12-14T17:09:36.768Z,15.07
2022-12-14T17:12:25.823Z,14.75
2022-12-14T17:14:59.883Z,17.13
2022-12-14T17:17:37.001Z,17.42
2022-12-14T17:20:17.649Z,16.30
2022-12-14T17:22:52.878Z,15.90
2022-12-14T17:25:27.180Z,17.45
2022-12-14T17:28:08.277Z,16.00
2022-12-14T17:30:42.112Z,14.70
2022-12-14T17:33:15.039Z,16.20
2022-12-14T17:35:47.057Z,16.05
2022-12-14T17:38:18.109Z,16.90
2022-12-14T17:40:54.549Z,18.05
2022-12-14T17:43:51.059Z,15.57
2022-12-14T17:46:52.207Z,14.43
2022-12-14T17:49:35.485Z,15.52
2022-12-14T17:53:05.294Z,14.98
2022-12-14T17:55:30.741Z,15.90
2022-12-14T17:58:04.898Z,15.23
2022-12-14T18:01:07.101Z,16.27
2022-12-14T18:03:49.180Z,16.30
2022-12-14T18:06:45.137Z,16.63
2022-12-14T18:09:24.881Z,15.35
2022-12-14T18:12:31.866Z,14.48
2022-12-14T18:15:16.581Z,16.00
2022-12-14T18:17:53.667Z,16.58
2022-12-14T18:23:41.156Z,17.05
2022-12-14T18:26:24.420Z,16.52
2022-12-14T18:29:06.886Z,17.88
2022-12-14T18:31:52.948Z,15.23
2022-12-14T18:34:47.171Z,15.60
2022-12-14T18:37:35.273Z,16.40
2022-12-14T18:40:26.729Z,15.45
2022-12-14T18:42:59.548Z,16.00
2022-12-14T18:45:46.346Z,15.57
2022-12-14T18:48:20.364Z,16.77
2022-12-14T18:51:46.257Z,16.48
2022-12-14T18:59:19.403Z,16.15
2022-12-14T19:10:52.042Z,15.25
2022-12-14T19:14:27.048Z,16.67
2022-12-14T19:17:21.350Z,16.38
2022-12-14T19:23:49.644Z,14.70
2022-12-14T19:27:35.609Z,15.30
2022-12-14T19:31:21.622Z,16.52
2022-12-14T19:46:04.173Z,16.17
2022-12-14T19:57:05.333Z,16.80
2022-12-14T19:59:46.813Z,17.20
2022-12-14T20:02:51.998Z,18.17
2022-12-14T20:06:07.081Z,16.85
2022-12-14T20:09:07.655Z,15.88
2022-12-14T20:11:55.604Z,17.92
2022-12-14T20:15:05.405Z,18.48
2022-12-14T20:18:03.900Z,17.42
2022-12-14T20:24:10.036Z,16.55
2022-12-14T20:26:59.604Z,17.17
2022-12-14T20:29:32.167Z,17.17
2022-12-14T20:32:05.640Z,18.50
2022-12-14T20:34:46.990Z,17.05
2022-12-14T20:37:21.342Z,16.60
2022-12-14T20:39:52.755Z,16.65
2022-12-14T20:42:34.069Z,16.38
2022-12-14T20:45:27.728Z,16.73
2022-12-14T20:48:01.270Z,17.10
2022-12-14T20:50:35.610Z,16.33
2022-12-14T20:53:18.147Z,19.33
2022-12-14T20:56:02.115Z,18.65
2022-12-14T20:58:31.385Z,18.58
2022-12-14T21:01:21.421Z,17.98
2022-12-14T21:03:58.636Z,17.60
2022-12-14T21:06:41.566Z,17.80
2022-12-14T21:09:17.197Z,18.33
2022-12-14T21:12:07.849Z,16.48
2022-12-14T21:18:28.913Z,16.35
2022-12-14T21:21:11.602Z,16.33
2022-12-14T21:23:42.135Z,16.55
2022-12-14T21:26:11.990Z,18.13
2022-12-14T21:29:42.218Z,17.80
2022-12-14T21:32:09.154Z,16.65
2022-12-14T21:34:59.795Z,18.00
2022-12-14T21:37:43.013Z,17.40
2022-12-14T21:40:59.640Z,17.25
2022-12-14T21:43:42.338Z,17.00
2022-12-14T21:47:21.590Z,16.33
2022-12-14T21:50:17.772Z,16.00
2022-12-14T21:53:14.009Z,16.25
2022-12-14T21:56:15.320Z,15.45
2022-12-14T21:58:45.447Z,17.23
2022-12-14T22:01:15.176Z,16.48
2022-12-14T22:04:16.301Z,16.20
2022-12-14T22:06:44.511Z,16.73
2022-12-14T22:09:12.438Z,16.65
2022-12-14T22:11:40.149Z,15.43
2022-12-14T22:14:12.894Z,15.30
2022-12-14T22:16:41.359Z,15.95
2022-12-14T22:19:13.100Z,12.15
2022-12-14T22:21:40.875Z,12.27
2022-12-14T22:24:09.834Z,12.38
2022-12-14T22:26:38.163Z,11.90
2022-12-14T22:29:06.235Z,11.05
2022-12-14T22:31:36.483Z,10.40
2022-12-14T22:34:04.623Z,10.60
2022-12-14T22:36:32.424Z,10.73
2022-12-14T22:39:00.577Z,11.35
2022-12-14T22:41:28.649Z,10.23
2022-12-14T22:43:57.186Z,11.48
2022-12-14T22:46:26.190Z,9.98
2022-12-14T22:48:55.570Z,10.07
2022-12-14T22:51:25.249Z,10.10
2022-12-14T22:53:53.386Z,10.02
2022-12-14T22:56:27.058Z,11.88
2022-12-14T22:58:58.641Z,12.63
2022-12-14T23:01:27.772Z,11.65
2022-12-14T23:03:57.363Z,10.77
2022-12-14T23:06:25.482Z,10.98
2022-12-14T23:09:10.840Z,10.82
2022-12-14T23:11:55.955Z,11.00
2022-12-14T23:14:41.390Z,11.65
2022-12-14T23:17:29.683Z,10.48
2022-12-14T23:20:20.148Z,10.88
2022-12-14T23:23:05.377Z,11.68
2022-12-14T23:25:52.119Z,10.32
2022-12-14T23:28:37.817Z,11.00
2022-12-14T23:31:23.352Z,11.07
2022-12-14T23:34:08.517Z,10.98
2022-12-14T23:36:55.295Z,11.68
2022-12-14T23:39:40.741Z,11.07
2022-12-14T23:42:25.942Z,11.77
2022-12-14T23:45:11.599Z,11.75
2022-12-14T23:47:57.249Z,11.77
2022-12-14T23:50:42.526Z,10.57
2022-12-14T23:53:32.623Z,11.07
2022-12-14T23:56:18.758Z,10.52
2022-12-14T23:59:04.040Z,10.55
